Time;durP1;ratioP1;P1;durP2;ratioP2;P2;SDS_P1;SDS_P2;PMS_P1;PMS_P2;Temp;Humidity;BMP_temperature;BMP_pressure;BME280_temperature;BME280_humidity;BME280_pressure;Samples;Min_cycle;Max_cycle;Signal;HPM_P1;HPM_P2
2024/01/08 07:01:24;;;;;;;1.63;1.43;;;-0.70;99.90;0.60;102721.00;;;;5910964;22;7189847;-76
2024/01/08 07:04:01;;;;;;;1.57;1.30;;;-0.70;99.90;0.10;102703.00;;;;6246681;23;20469;-75
2024/01/08 07:06:35;;;;;;;1.43;1.33;;;-0.80;99.90;0.40;102687.00;;;;6221783;23;20557;-76
2024/01/08 07:09:06;;;;;;;1.63;1.53;;;-0.80;99.90;0.70;102722.00;;;;6221609;23;20160;-76
2024/01/08 07:11:40;;;;;;;3.27;2.17;;;-0.70;99.90;-0.20;102715.00;;;;6247332;22;20138;-76
2024/01/08 07:14:12;;;;;;;1.27;1.17;;;-0.90;99.90;0.50;102691.00;;;;6221212;23;20168;-75
2024/01/08 07:16:43;;;;;;;2.33;1.90;;;-0.80;99.90;0.00;102700.00;;;;6220921;23;20158;-76
2024/01/08 07:19:24;;;;;;;0.83;0.83;;;-0.80;99.90;0.10;102691.00;;;;6246107;23;20229;-76
2024/01/08 07:22:01;;;;;;;2.63;2.27;;;-0.90;99.90;-0.10;102713.00;;;;6246098;23;20173;-76
2024/01/08 07:24:43;;;;;;;1.00;0.93;;;-0.90;99.90;0.50;102692.00;;;;6246144;23;20162;-76
2024/01/08 07:27:22;;;;;;;2.10;1.70;;;-0.90;99.90;0.30;102718.00;;;;6245767;23;20138;-76
2024/01/08 07:30:03;;;;;;;5.53;2.03;;;-0.80;99.90;0.10;102700.00;;;;6221280;23;20158;-76
2024/01/08 07:32:45;;;;;;;2.80;2.47;;;-0.80;99.90;0.20;102685.00;;;;6221566;23;20219;-75
2024/01/08 07:35:25;;;;;;;5.70;3.10;;;-0.70;99.90;0.20;102715.00;;;;6221023;23;20295;-75
2024/01/08 07:37:59;;;;;;;3.73;2.27;;;-0.80;99.90;0.10;102699.00;;;;6220111;23;20167;-75
2024/01/08 07:40:37;;;;;;;1.20;1.10;;;-0.80;99.90;0.70;102716.00;;;;6245820;23;20244;-75
2024/01/08 07:43:11;;;;;;;2.73;1.57;;;-0.70;99.90;0.50;102720.00;;;;6245395;23;20141;-75
2024/01/08 07:45:42;;;;;;;4.00;2.47;;;-0.60;99.90;0.10;102729.00;;;;6245880;23;20157;-74
2024/01/08 07:48:19;;;;;;;3.30;2.43;;;-0.80;99.90;0.00;102714.00;;;;6246086;23;20146;-74
2024/01/08 07:51:01;;;;;;;13.13;2.83;;;-0.80;99.90;0.40;102705.00;;;;6246233;23;20229;-74
2024/01/08 07:53:33;;;;;;;3.67;2.30;;;-0.80;99.90;0.00;102726.00;;;;6220605;23;20188;-74
2024/01/08 07:56:12;;;;;;;1.33;1.23;;;-0.80;99.90;0.00;102739.00;;;;6246927;22;20145;-74
2024/01/08 07:58:51;;;;;;;0.50;0.50;;;-0.80;99.90;0.90;102727.00;;;;6247056;22;20464;-74
2024/01/08 08:01:28;;;;;;;2.67;2.47;;;-0.70;99.90;0.50;102646.00;;;;6220696;23;20495;-74
2024/01/08 08:04:05;;;;;;;5.93;3.63;;;-0.70;99.90;-0.10;102647.00;;;;6245898;23;20142;-74
2024/01/08 08:06:47;;;;;;;3.33;1.80;;;-0.70;99.90;0.80;102726.00;;;;6220514;23;20157;-74
2024/01/08 08:09:18;;;;;;;0.67;0.67;;;-0.70;99.90;0.60;102712.00;;;;6247161;22;20150;-74
2024/01/08 08:11:50;;;;;;;2.97;2.77;;;-0.70;99.90;0.30;102719.00;;;;6219316;23;20578;-74
2024/01/08 08:14:21;;;;;;;3.70;3.10;;;-0.70;99.90;0.40;102717.00;;;;6247267;22;20188;-74
2024/01/08 08:16:55;;;;;;;1.70;1.60;;;-0.60;99.90;1.00;102700.00;;;;6245797;23;20601;-74
2024/01/08 08:19:26;;;;;;;0.50;0.50;;;-0.60;99.90;0.60;102718.00;;;;6246465;22;20154;-74
2024/01/08 08:22:03;;;;;;;2.20;1.60;;;-0.60;99.90;0.70;102712.00;;;;6245972;23;20206;-74
2024/01/08 08:24:35;;;;;;;2.20;1.70;;;-0.60;99.90;0.60;102723.00;;;;6244517;23;20239;-75
2024/01/08 08:27:09;;;;;;;0.63;0.63;;;-0.50;99.90;1.00;102738.00;;;;6244834;23;20142;-74
2024/01/08 08:29:56;;;;;;;1.33;1.23;;;-0.50;99.90;0.30;102735.00;;;;6245678;23;20161;-74
2024/01/08 08:32:58;;;;;;;1.27;1.17;;;-0.60;99.90;1.10;102735.00;;;;6245588;23;20167;-74
2024/01/08 08:35:47;;;;;;;2.87;2.67;;;-0.50;99.90;0.90;102666.00;;;;6234142;23;20215;-75
2024/01/08 08:38:41;;;;;;;3.67;2.03;;;-0.50;99.90;0.50;102744.00;;;;6219094;23;20530;-75
2024/01/08 08:41:19;;;;;;;2.23;1.80;;;-0.50;99.90;0.40;102738.00;;;;6246971;22;20138;-74
2024/01/08 08:44:17;;;;;;;4.83;4.33;;;-0.60;99.90;0.30;102700.00;;;;6246756;22;20149;-75
2024/01/08 08:47:12;;;;;;;4.43;2.33;;;-0.50;99.90;0.50;102682.00;;;;6245079;23;20165;-74
2024/01/08 08:49:58;;;;;;;4.40;1.40;;;-0.50;99.90;1.00;102750.00;;;;6232775;23;20463;-74
2024/01/08 08:52:34;;;;;;;1.00;1.00;;;-0.40;99.90;1.50;102665.00;;;;6245370;23;20184;-74
2024/01/08 08:55:08;;;;;;;1.47;1.47;;;-0.20;99.90;0.90;102735.00;;;;6245218;23;20141;-74
2024/01/08 08:58:08;;;;;;;4.70;4.20;;;-0.30;99.90;0.80;102742.00;;;;6245641;23;20200;-74
2024/01/08 09:00:40;;;;;;;1.90;1.80;;;-0.30;99.90;1.40;102750.00;;;;6236521;23;20497;-75
2024/01/08 09:03:15;;;;;;;3.47;3.23;;;-0.10;99.90;0.70;102739.00;;;;6245226;23;20509;-75
2024/01/08 09:06:23;;;;;;;4.00;2.97;;;-0.30;99.90;0.40;102745.00;;;;6245648;23;20240;-75
2024/01/08 09:09:17;;;;;;;4.27;3.17;;;-0.30;99.90;0.80;102745.00;;;;6245199;23;20146;-75
2024/01/08 09:12:06;;;;;;;2.17;2.03;;;-0.20;99.90;1.10;102757.00;;;;6245403;23;20158;-75
2024/01/08 09:14:50;;;;;;;2.37;2.17;;;-0.30;99.90;0.80;102757.00;;;;6246320;22;20170;-75
2024/01/08 09:17:29;;;;;;;3.17;2.37;;;-0.20;99.90;0.60;102751.00;;;;6245035;23;20145;-75
2024/01/08 09:20:00;;;;;;;3.70;2.83;;;-0.30;99.90;0.20;102739.00;;;;6245258;23;20463;-74
2024/01/08 09:22:57;;;;;;;2.53;2.27;;;-0.30;99.90;0.80;102756.00;;;;6246666;22;20149;-75
2024/01/08 09:26:06;;;;;;;2.40;2.07;;;-0.10;99.90;0.50;102743.00;;;;6245139;23;20578;-74
2024/01/08 09:29:01;;;;;;;5.10;4.33;;;-0.10;99.90;0.90;102740.00;;;;6244965;23;20209;-77
2024/01/08 09:31:51;;;;;;;2.47;1.70;;;-0.10;99.90;1.30;102737.00;;;;6246640;22;20221;-76
2024/01/08 09:35:04;;;;;;;2.17;2.00;;;0.00;99.90;1.30;102749.00;;;;6186377;23;20662;-76
2024/01/08 09:38:28;;;;;;;2.37;1.87;;;0.10;99.90;1.20;102757.00;;;;6244876;23;20509;-76
2024/01/08 09:41:39;;;;;;;6.30;3.67;;;0.00;99.90;1.00;102753.00;;;;6245130;22;20165;-76
2024/01/08 09:44:29;;;;;;;3.40;2.23;;;0.10;99.90;1.70;102744.00;;;;6219656;23;20544;-76
2024/01/08 09:47:40;;;;;;;3.23;2.93;;;0.20;99.90;1.60;102771.00;;;;6128640;23;20155;-76
2024/01/08 09:50:20;;;;;;;3.87;2.83;;;0.30;99.90;1.00;102758.00;;;;6244042;23;20157;-75
2024/01/08 09:53:27;;;;;;;1.17;1.17;;;0.10;99.90;2.20;102788.00;;;;6245174;23;20173;-76
2024/01/08 09:56:27;;;;;;;2.70;2.50;;;0.50;99.90;1.50;102703.00;;;;6244751;23;20485;-75
2024/01/08 09:59:19;;;;;;;2.23;1.80;;;0.40;99.90;0.90;102754.00;;;;6235925;23;20162;-76
2024/01/08 10:02:17;;;;;;;6.03;3.33;;;0.30;99.90;1.20;102770.00;;;;6244650;23;20254;-76
2024/01/08 10:04:51;;;;;;;7.13;3.97;;;0.30;99.90;1.40;102760.00;;;;6217475;23;20164;-75
2024/01/08 10:07:27;;;;;;;4.50;4.10;;;0.30;99.90;1.20;102738.00;;;;6244300;23;20568;-76
2024/01/08 10:10:13;;;;;;;5.73;4.43;;;0.40;99.90;1.10;102750.00;;;;6242852;23;20141;-76
2024/01/08 10:12:53;;;;;;;1.80;1.70;;;0.30;99.90;1.50;102780.00;;;;6218235;23;20201;-75
2024/01/08 10:15:54;;;;;;;3.90;2.57;;;0.50;99.90;1.90;102767.00;;;;6243853;23;20191;-76
2024/01/08 10:18:39;;;;;;;4.90;2.80;;;0.50;99.90;0.80;102756.00;;;;6219922;23;20594;-75
2024/01/08 10:34:16;;;;;;;3.40;2.40;;;0.00;99.90;0.50;102675.00;;;;5109546;27;21072;-76
2024/01/08 10:36:48;;;;;;;2.83;2.53;;;0.20;99.90;1.10;102725.00;;;;5089115;28;20200;-76
2024/01/08 10:39:57;;;;;;;4.87;3.33;;;0.20;99.90;1.50;102736.00;;;;5088866;28;20288;-76
2024/01/08 10:42:40;;;;;;;3.17;2.37;;;0.30;99.90;1.50;102740.00;;;;5086687;28;20204;-73
2024/01/08 10:45:34;;;;;;;5.40;3.67;;;0.50;99.90;1.10;102734.00;;;;5091404;28;20190;-75
2024/01/08 10:48:21;;;;;;;2.13;1.70;;;0.40;99.90;1.70;102734.00;;;;5084052;28;20212;-69
2024/01/08 10:51:18;;;;;;;1.30;1.20;;;0.40;99.90;1.40;102719.00;;;;5080668;28;20190;-71
2024/01/08 10:54:02;;;;;;;2.17;1.70;;;0.40;99.90;1.70;102715.00;;;;5084212;28;20537;-73
2024/01/08 10:56:49;;;;;;;3.43;3.13;;;0.40;99.90;0.80;102721.00;;;;5089178;28;20638;-73
2024/01/08 10:59:40;;;;;;;4.93;4.63;;;0.30;99.90;1.90;102679.00;;;;5066475;28;20246;-74
2024/01/08 11:02:46;;;;;;;5.97;2.87;;;0.50;99.90;1.50;102719.00;;;;5082229;28;20195;-72
2024/01/08 11:05:41;;;;;;;3.20;2.53;;;0.40;99.90;1.20;102730.00;;;;5098370;28;20173;-73
2024/01/08 11:08:47;;;;;;;2.90;2.07;;;0.30;99.90;1.20;102714.00;;;;5080872;28;20289;-74
2024/01/08 11:11:25;;;;;;;6.50;5.10;;;0.30;99.90;0.70;102708.00;;;;5065002;28;20246;-74
2024/01/08 11:14:08;;;;;;;1.10;1.03;;;0.20;99.90;1.00;102718.00;;;;5087557;28;20295;-73
2024/01/08 11:17:17;;;;;;;1.00;0.90;;;0.20;99.90;1.70;102721.00;;;;5070540;28;20184;-74
2024/01/08 11:20:40;;;;;;;3.87;3.30;;;0.30;99.90;1.30;102718.00;;;;5102775;28;20581;-74
2024/01/08 11:23:41;;;;;;;1.80;1.70;;;0.30;99.90;1.40;102715.00;;;;5089310;28;20324;-74
2024/01/08 11:26:51;;;;;;;2.33;2.13;;;0.30;99.90;1.30;102688.00;;;;5066762;28;20197;-74
2024/01/08 11:29:45;;;;;;;2.43;2.23;;;0.30;99.90;1.60;102714.00;;;;5071439;28;20184;-74
2024/01/08 11:32:54;;;;;;;2.17;1.67;;;0.40;99.90;1.70;102714.00;;;;5066569;28;20573;-74
2024/01/08 11:36:02;;;;;;;0.87;0.47;;;0.50;99.90;2.60;102709.00;;;;5087262;28;20188;-74
2024/01/08 11:38:34;;;;;;;5.80;2.73;;;0.80;99.90;2.10;102717.00;;;;5091030;28;20187;-71
2024/01/08 11:41:52;;;;;;;0.30;0.30;;;1.10;99.90;2.80;102719.00;;;;5073494;28;20203;-72
2024/01/08 11:45:02;;;;;;;4.80;3.20;;;1.30;99.90;1.80;102712.00;;;;5077322;28;20342;-72
2024/01/08 11:48:18;;;;;;;3.27;2.87;;;1.20;99.90;1.70;102714.00;;;;5074409;28;20569;-74
2024/01/08 11:51:24;;;;;;;12.17;4.67;;;0.80;99.90;0.90;102698.00;;;;5090390;28;20226;-74
2024/01/08 11:54:18;;;;;;;3.20;1.47;;;0.50;99.90;1.90;102712.00;;;;5073940;28;20283;-74
2024/01/08 11:57:22;;;;;;;2.73;2.43;;;0.60;99.90;1.20;102713.00;;;;5073302;28;20559;-74
2024/01/08 12:00:15;;;;;;;2.40;2.22;;;0.60;99.90;0.70;102699.00;;;;5076129;28;20492;-74
2024/01/08 12:03:26;;;;;;;1.47;1.37;;;0.40;99.90;0.80;102685.00;;;;5072827;28;20201;-74
2024/01/08 12:06:42;;;;;;;4.33;2.10;;;0.30;99.90;1.30;102669.00;;;;5064110;28;20537;-74
2024/01/08 12:09:36;;;;;;;4.70;4.10;;;0.40;99.90;1.20;102649.00;;;;5080550;28;20259;-74
2024/01/08 12:12:44;;;;;;;0.83;0.83;;;0.30;99.90;2.20;102631.00;;;;5087508;28;20194;-74
2024/01/08 12:15:53;;;;;;;0.87;0.87;;;0.50;99.90;2.70;102687.00;;;;5070177;28;20178;-74
2024/01/08 12:18:46;;;;;;;3.73;1.63;;;0.70;99.90;2.00;102684.00;;;;5086281;28;20221;-72
2024/01/08 12:21:30;;;;;;;4.00;2.80;;;0.70;99.90;1.60;102685.00;;;;5051847;28;20631;-74
2024/01/08 12:24:19;;;;;;;2.80;1.33;;;0.70;99.90;1.90;102687.00;;;;5070695;28;20196;-74
2024/01/08 12:27:22;;;;;;;2.43;2.23;;;0.60;99.90;1.60;102701.00;;;;5048403;28;20603;-74
2024/01/08 12:30:17;;;;;;;0.87;0.80;;;0.50;99.90;2.10;102725.00;;;;5056893;28;20624;-74
2024/01/08 12:32:48;;;;;;;1.53;1.43;;;0.70;99.90;2.80;102668.00;;;;5055553;28;20271;-74
2024/01/08 12:35:51;;;;;;;1.33;1.03;;;0.90;99.90;2.40;102731.00;;;;5071623;28;20185;-72
2024/01/08 12:38:52;;;;;;;3.97;2.80;;;1.20;99.90;1.70;102765.00;;;;5061201;28;20189;-74
2024/01/08 12:41:44;;;;;;;3.23;2.47;;;0.70;99.90;2.00;102748.00;;;;5069067;28;20197;-75
2024/01/08 12:44:47;;;;;;;2.10;1.90;;;0.60;99.90;1.50;102781.00;;;;5072929;28;20280;-74
2024/01/08 12:47:16;;;;;;;0.80;0.80;;;0.60;99.90;2.70;102751.00;;;;5062634;28;20193;-74
2024/01/08 12:49:42;;;;;;;3.13;2.37;;;0.70;99.90;1.90;102767.00;;;;5073631;28;20200;-74
2024/01/08 12:52:14;;;;;;;2.07;1.43;;;0.60;99.90;2.80;102766.00;;;;5073815;28;20284;-74
2024/01/08 12:54:41;;;;;;;0.63;0.53;;;0.70;99.90;2.80;102717.00;;;;5073001;28;20185;-75
2024/01/08 12:57:16;;;;;;;1.17;1.07;;;0.90;99.90;3.30;102734.00;;;;5072980;28;20185;-75
2024/01/08 12:59:54;;;;;;;1.33;1.23;;;1.00;99.90;3.90;102772.00;;;;5073088;28;20184;-73
2024/01/08 13:02:41;;;;;;;0.73;0.73;;;1.30;99.90;4.10;102776.00;;;;5071940;28;20185;-70
2024/01/08 13:05:29;;;;;;;2.03;1.80;;;1.60;99.90;2.10;102799.00;;;;5071707;28;20201;-69
2024/01/08 13:08:16;;;;;;;3.10;1.63;;;1.10;99.90;2.40;102805.00;;;;5072840;28;20221;-72
2024/01/08 13:10:44;;;;;;;2.07;1.97;;;0.90;99.90;2.00;102804.00;;;;5068149;28;20264;-72
2024/01/08 13:13:12;;;;;;;1.87;1.63;;;0.80;99.90;1.90;102803.00;;;;5072148;28;20213;-72
2024/01/08 13:15:43;;;;;;;3.23;2.90;;;0.70;99.90;1.70;102788.00;;;;5058567;28;20181;-72
2024/01/08 13:18:09;;;;;;;1.93;1.73;;;0.60;99.90;1.50;102802.00;;;;5071798;28;20240;-72
2024/01/08 13:20:41;;;;;;;0.50;0.50;;;0.50;99.90;2.20;102791.00;;;;5072139;28;20539;-73
2024/01/08 13:23:27;;;;;;;0.63;0.63;;;0.70;99.90;2.70;102778.00;;;;5072382;28;20205;-72
2024/01/08 13:26:18;;;;;;;2.27;1.57;;;0.80;99.90;3.10;102781.00;;;;5071418;28;20197;-70
2024/01/08 13:28:45;;;;;;;2.07;1.97;;;1.00;99.90;3.60;102765.00;;;;5085337;28;20527;-70
2024/01/08 13:31:11;;;;;;;1.70;1.60;;;1.20;99.90;3.40;102785.00;;;;5069784;28;20271;-70
2024/01/08 13:33:42;;;;;;;0.50;0.50;;;1.20;99.90;3.60;102770.00;;;;5068241;28;20197;-70
2024/01/08 13:36:12;;;;;;;3.00;1.67;;;1.30;99.90;2.70;102799.00;;;;5075210;28;20255;-70
2024/01/08 13:38:38;;;;;;;1.53;1.40;;;1.20;99.90;2.50;102779.00;;;;5088691;28;20506;-72
2024/01/08 13:41:10;;;;;;;1.73;1.63;;;0.90;99.90;2.50;102733.00;;;;5088578;28;20188;-72
2024/01/08 13:43:36;;;;;;;6.13;1.87;;;0.90;99.90;1.80;102806.00;;;;5070907;28;20185;-72
2024/01/08 13:46:11;;;;;;;1.60;1.17;;;0.80;99.90;3.60;102776.00;;;;5058438;28;20188;-71
2024/01/08 13:48:41;;;;;;;1.30;1.20;;;1.10;99.90;3.50;102758.00;;;;5072505;28;20181;-69
2024/01/08 13:51:14;;;;;;;1.63;1.53;;;1.30;99.90;3.80;102704.00;;;;5072031;28;20268;-69
2024/01/08 13:53:42;;;;;;;2.10;2.00;;;1.30;99.90;3.00;102784.00;;;;5075775;28;20193;-69
2024/01/08 13:56:08;;;;;;;2.93;2.37;;;1.20;99.90;2.00;102806.00;;;;5069517;28;20178;-71
2024/01/08 13:58:40;;;;;;;4.40;3.17;;;0.90;99.90;1.70;102782.00;;;;5071518;28;20266;-71
2024/01/08 14:01:09;;;;;;;2.23;1.80;;;0.70;99.90;2.70;102777.00;;;;5066250;28;20285;-71
2024/01/08 14:03:42;;;;;;;1.53;1.23;;;0.80;99.90;3.00;102767.00;;;;5067714;28;20196;-71
2024/01/08 14:06:17;;;;;;;2.77;2.33;;;1.00;99.90;2.20;102785.00;;;;5061964;28;20173;-68
2024/01/08 14:08:54;;;;;;;3.17;1.00;;;1.00;99.90;2.30;102784.00;;;;5071627;28;20231;-71
2024/01/08 14:11:20;;;;;;;1.77;0.77;;;0.80;99.90;2.60;102768.00;;;;5072665;28;20192;-71
2024/01/08 14:13:54;;;;;;;1.87;1.77;;;0.90;99.90;2.60;102780.00;;;;5072911;28;20189;-69
2024/01/08 14:16:27;;;;;;;4.90;3.80;;;1.00;99.90;2.00;102781.00;;;;5070452;28;20251;-71
2024/01/08 14:18:53;;;;;;;2.53;2.07;;;0.80;99.90;2.80;102766.00;;;;5072980;28;20189;-71
2024/01/08 14:21:19;;;;;;;2.17;1.93;;;0.90;99.90;1.70;102777.00;;;;5071137;28;20186;-71
2024/01/08 14:23:51;;;;;;;1.47;0.90;;;0.60;99.90;2.80;102771.00;;;;5071468;28;20192;-75
2024/01/08 14:26:17;;;;;;;1.20;1.13;;;0.70;99.90;2.80;102766.00;;;;5071245;28;20189;-69
2024/01/08 14:28:54;;;;;;;3.50;1.57;;;0.70;99.90;2.70;102773.00;;;;5072788;28;20185;-69
2024/01/08 14:31:39;;;;;;;1.23;1.13;;;0.80;99.90;2.20;102782.00;;;;5071175;28;20219;-69
2024/01/08 14:34:20;;;;;;;2.47;2.27;;;0.70;99.90;2.50;102767.00;;;;5086115;28;20607;-69
2024/01/08 14:36:46;;;;;;;0.47;0.40;;;0.50;99.90;2.30;102782.00;;;;5072657;28;20191;-69
2024/01/08 14:39:58;;;;;;;3.80;3.10;;;0.60;99.90;2.50;102769.00;;;;5071052;28;20268;-69
2024/01/08 14:42:43;;;;;;;0.40;0.40;;;0.70;99.90;2.80;102769.00;;;;5072724;28;20197;-69
2024/01/08 14:45:26;;;;;;;1.10;1.10;;;0.70;99.90;3.20;102760.00;;;;5070493;28;20284;-69
2024/01/08 14:48:19;;;;;;;0.87;0.87;;;1.00;99.90;2.90;102771.00;;;;5068291;28;20207;-69
2024/01/08 14:51:22;;;;;;;1.23;1.23;;;0.90;99.90;2.70;102782.00;;;;5026040;28;20221;-70
2024/01/08 14:54:04;;;;;;;0.93;0.93;;;0.90;99.90;3.20;102776.00;;;;5070270;28;20272;-70
2024/01/08 14:57:06;;;;;;;0.73;0.73;;;0.90;99.90;3.00;102753.00;;;;5071520;28;20270;-70
2024/01/08 15:00:08;;;;;;;2.87;2.33;;;1.00;99.90;2.00;102785.00;;;;5067823;28;20728;-69
2024/01/08 15:02:52;;;;;;;2.27;1.17;;;0.70;99.90;3.10;102759.00;;;;5059843;28;20201;-69
2024/01/08 15:06:00;;;;;;;1.20;0.77;;;0.70;99.90;3.40;102747.00;;;;5062224;28;20704;-69
2024/01/08 15:09:10;;;;;;;1.73;1.63;;;1.00;99.90;2.90;102703.00;;;;5068809;28;20184;-69
2024/01/08 15:11:55;;;;;;;0.63;0.63;;;0.80;99.90;2.80;102749.00;;;;5067578;28;20201;-70
2024/01/08 15:14:49;;;;;;;0.87;0.87;;;0.80;99.90;3.20;102740.00;;;;5071239;28;20223;-70
2024/01/08 15:17:46;;;;;;;2.30;1.80;;;0.80;99.90;2.80;102756.00;;;;5070575;28;20251;-69
2024/01/08 15:20:40;;;;;;;2.67;1.60;;;0.80;99.90;2.90;102754.00;;;;5065391;28;20264;-69
2024/01/08 15:23:38;;;;;;;3.57;1.67;;;0.90;99.90;1.90;102725.00;;;;5068937;28;20201;-70
2024/01/08 15:26:05;;;;;;;1.03;0.97;;;0.60;99.90;2.30;102763.00;;;;5072180;28;20186;-70
2024/01/08 15:28:37;;;;;;;2.10;1.40;;;0.50;99.90;2.70;102774.00;;;;5069751;28;20275;-70
2024/01/08 15:31:04;;;;;;;5.43;2.17;;;0.50;99.90;2.20;102794.00;;;;5072651;28;20177;-70
2024/01/08 15:33:31;;;;;;;2.70;1.57;;;0.50;99.90;2.00;102800.00;;;;5078699;28;20197;-70
2024/01/08 15:36:00;;;;;;;0.90;0.90;;;0.40;99.90;2.10;102790.00;;;;5074477;28;20182;-70
2024/01/08 15:38:29;;;;;;;1.93;1.33;;;0.40;99.90;1.80;102800.00;;;;5071637;28;20280;-70
2024/01/08 15:41:00;;;;;;;0.93;0.93;;;0.30;99.90;3.00;102764.00;;;;5074582;28;20182;-70
2024/01/08 15:43:30;;;;;;;1.70;1.60;;;0.50;99.90;1.90;102791.00;;;;5073451;28;20193;-70
2024/01/08 15:46:04;;;;;;;1.87;1.50;;;0.40;99.90;2.20;102802.00;;;;5073680;28;20185;-70
2024/01/08 15:48:31;;;;;;;1.23;0.80;;;0.20;99.90;3.00;102764.00;;;;5064640;28;20714;-70
2024/01/08 15:50:57;;;;;;;1.00;0.70;;;0.50;99.90;1.90;102794.00;;;;5072759;28;20225;-70
2024/01/08 15:53:23;;;;;;;1.30;0.97;;;0.30;99.90;2.10;102751.00;;;;5076178;28;20225;-70
2024/01/08 15:55:49;;;;;;;2.13;1.73;;;0.30;99.90;1.00;102770.00;;;;5078857;28;20655;-69
2024/01/08 15:58:15;;;;;;;0.97;0.97;;;0.10;99.90;1.70;102816.00;;;;5074760;28;20193;-69
2024/01/08 16:00:41;;;;;;;0.70;0.70;;;0.10;99.90;3.00;102779.00;;;;5094323;28;20189;-69
2024/01/08 16:03:34;;;;;;;1.83;1.23;;;0.30;99.90;1.90;102810.00;;;;5066981;28;20198;-69
2024/01/08 16:06:03;;;;;;;1.83;1.63;;;0.30;99.90;1.50;102819.00;;;;5050944;28;20196;-69
2024/01/08 16:08:38;;;;;;;1.73;1.63;;;0.00;99.90;1.40;102825.00;;;;5075479;28;20632;-69
2024/01/08 16:11:05;;;;;;;2.47;1.03;;;0.00;99.90;1.80;102841.00;;;;5074811;28;20184;-69
2024/01/08 16:13:32;;;;;;;4.27;1.17;;;-0.10;99.90;2.20;102821.00;;;;5073640;28;20211;-69
2024/01/08 16:16:00;;;;;;;0.40;0.40;;;0.10;99.90;1.70;102826.00;;;;5070369;28;20178;-69
2024/01/08 16:18:48;;;;;;;1.13;1.13;;;0.10;99.90;2.30;102828.00;;;;5072917;28;20185;-69
2024/01/08 16:21:16;;;;;;;0.60;0.60;;;0.10;99.90;1.90;102803.00;;;;5073750;28;20189;-69
2024/01/08 16:23:48;;;;;;;0.87;0.87;;;0.00;99.90;2.20;102827.00;;;;5082528;28;20197;-69
2024/01/08 16:26:36;;;;;;;0.80;0.80;;;0.00;99.90;3.30;102802.00;;;;5057344;28;20182;-69
2024/01/08 16:29:22;;;;;;;0.97;0.83;;;0.30;99.90;1.40;102858.00;;;;5079301;28;20259;-69
2024/01/08 16:31:51;;;;;;;1.20;1.10;;;-0.10;99.90;1.50;102869.00;;;;5072741;28;20317;-69
2024/01/08 16:34:37;;;;;;;1.17;1.07;;;-0.10;99.90;1.10;102859.00;;;;5077407;28;20217;-69
2024/01/08 16:37:09;;;;;;;1.90;1.70;;;-0.20;99.90;2.70;102844.00;;;;5072865;28;20215;-70
2024/01/08 16:39:41;;;;;;;1.00;0.97;;;0.10;99.90;2.00;102863.00;;;;5055767;28;20284;-69
2024/01/08 16:42:15;;;;;;;2.80;1.17;;;0.00;99.90;0.90;102860.00;;;;5072233;28;20222;-69
2024/01/08 16:44:58;;;;;;;1.67;1.57;;;-0.20;99.90;1.80;102866.00;;;;5071951;28;20276;-69
2024/01/08 16:47:30;;;;;;;1.23;0.40;;;-0.20;99.90;2.80;102826.00;;;;5071908;28;20618;-70
2024/01/08 16:50:18;;;;;;;2.13;1.93;;;0.00;99.90;2.00;102850.00;;;;5073037;28;20253;-70
2024/01/08 16:55:46;;;;;;;1.50;1.43;;;-0.10;99.90;2.30;102788.00;;;;5067545;28;20251;-69
2024/01/08 16:58:17;;;;;;;1.80;1.70;;;0.00;99.90;2.20;102848.00;;;;5073968;28;20185;-69
2024/01/08 17:00:43;;;;;;;1.00;0.90;;;0.00;99.90;2.00;102846.00;;;;5071020;28;20194;-70
2024/01/08 17:03:08;;;;;;;1.17;1.13;;;0.00;99.90;2.30;102859.00;;;;5070648;28;20257;-70
2024/01/08 17:05:34;;;;;;;0.40;0.40;;;0.00;99.90;2.10;102808.00;;;;5054544;28;20225;-70
2024/01/08 17:08:00;;;;;;;0.60;0.60;;;0.00;99.90;2.10;102861.00;;;;5073248;28;20512;-70
2024/01/08 17:10:26;;;;;;;0.87;0.73;;;-0.10;99.90;2.40;102852.00;;;;5072021;28;20226;-69
2024/01/08 17:12:52;;;;;;;0.40;0.40;;;-0.20;99.90;1.30;102883.00;;;;5071862;28;20296;-69
2024/01/08 17:15:53;;;;;;;4.33;1.80;;;-0.30;99.90;2.20;102878.00;;;;5065532;28;20285;-69
2024/01/08 17:18:19;;;;;;;0.70;0.70;;;-0.20;99.90;1.80;102871.00;;;;5080073;28;20209;-69
2024/01/08 17:20:45;;;;;;;0.53;0.53;;;-0.10;99.90;2.70;102848.00;;;;5066424;28;20222;-69
2024/01/08 17:23:11;;;;;;;0.20;0.20;;;0.00;99.90;2.70;102878.00;;;;5072034;28;20189;-70
2024/01/08 17:25:37;;;;;;;1.20;1.10;;;0.00;99.90;2.50;102868.00;;;;5073045;28;20185;-69
2024/01/08 17:28:44;;;;;;;0.53;0.53;;;0.00;99.90;2.90;102800.00;;;;5073575;28;20637;-69
2024/01/08 17:31:32;;;;;;;1.47;1.03;;;0.20;99.90;1.60;102886.00;;;;5070847;28;20181;-69
2024/01/08 17:33:58;;;;;;;1.07;1.00;;;-0.10;99.90;2.70;102872.00;;;;5067830;28;20197;-69
2024/01/08 17:36:42;;;;;;;3.10;1.37;;;0.10;99.90;1.30;102890.00;;;;5072794;28;20203;-79
2024/01/08 17:39:08;;;;;;;1.57;0.97;;;-0.10;99.90;1.20;102914.00;;;;5053775;28;20537;-70
2024/01/08 17:41:34;;;;;;;0.73;0.30;;;-0.40;99.90;1.90;102889.00;;;;5064213;28;20644;-70
2024/01/08 17:44:04;;;;;;;1.17;1.07;;;-0.40;99.90;2.30;102886.00;;;;5071121;28;20243;-71
2024/01/08 17:46:34;;;;;;;0.53;0.53;;;-0.20;99.90;1.80;102851.00;;;;5070537;28;20247;-71
2024/01/08 17:49:05;;;;;;;2.10;1.37;;;-0.40;99.90;1.40;102922.00;;;;5054891;28;20189;-70
2024/01/08 17:52:24;;;;;;;1.00;0.90;;;-0.40;99.90;2.30;102912.00;;;;5071772;28;20212;-71
2024/01/08 17:55:05;;;;;;;1.43;1.33;;;-0.30;99.90;0.90;102926.00;;;;5062451;28;20189;-71
2024/01/08 17:57:57;;;;;;;0.80;0.80;;;-0.50;99.90;2.60;102897.00;;;;5071773;28;20640;-70
2024/01/08 18:00:28;;;;;;;1.57;0.90;;;-0.30;99.90;1.90;102859.00;;;;5071414;28;20216;-71
2024/01/08 18:03:17;;;;;;;1.23;0.87;;;-0.10;99.90;1.80;102909.00;;;;5068926;28;20197;-71
2024/01/08 18:05:55;;;;;;;1.77;1.57;;;-0.20;99.90;1.20;102860.00;;;;5084215;28;20272;-70
2024/01/08 18:08:47;;;;;;;0.40;0.40;;;-0.40;99.90;1.80;102929.00;;;;5072286;28;20602;-70
2024/01/08 18:11:38;;;;;;;1.80;1.53;;;-0.50;99.90;2.00;102922.00;;;;5071721;28;20178;-70
2024/01/08 18:14:44;;;;;;;0.77;0.77;;;-0.30;99.90;1.60;102909.00;;;;5073014;28;20196;-70
2024/01/08 18:17:39;;;;;;;0.60;0.60;;;-0.20;99.90;1.80;102927.00;;;;5086815;28;20192;-70
2024/01/08 18:20:35;;;;;;;6.03;1.57;;;-0.40;99.90;2.20;102905.00;;;;5077088;28;20201;-70
2024/01/08 18:23:06;;;;;;;0.80;0.80;;;-0.20;99.90;1.50;102861.00;;;;5069231;28;20224;-70
2024/01/08 18:26:34;;;;;;;1.20;1.00;;;-0.30;99.90;1.90;102917.00;;;;5071899;28;20551;-70
2024/01/08 18:29:40;;;;;;;1.47;0.63;;;-0.30;99.90;1.00;102961.00;;;;5063161;28;20700;-70
2024/01/08 18:32:44;;;;;;;1.27;0.67;;;-0.50;99.90;1.50;102954.00;;;;5064318;28;20213;-70
2024/01/08 18:35:55;;;;;;;1.90;1.37;;;-0.70;99.90;0.60;102903.00;;;;5069368;28;20192;-70
2024/01/08 18:39:04;;;;;;;3.10;1.17;;;-0.50;99.90;1.60;102942.00;;;;5072191;28;20197;-70
2024/01/08 18:42:07;;;;;;;1.20;1.10;;;-0.50;99.90;1.80;102957.00;;;;5069265;28;20220;-70
2024/01/08 18:45:00;;;;;;;1.10;1.03;;;-0.50;99.90;1.90;102951.00;;;;5083195;28;20700;-70
2024/01/08 18:47:41;;;;;;;0.20;0.20;;;-0.40;99.90;2.70;102924.00;;;;5064557;28;20224;-70
2024/01/08 18:50:43;;;;;;;0.50;0.50;;;-0.20;99.90;1.40;102949.00;;;;5070995;28;20610;-69
2024/01/08 18:53:37;;;;;;;2.10;1.07;;;-0.40;99.90;1.20;102962.00;;;;5071450;28;20602;-70
2024/01/08 18:56:23;;;;;;;1.37;1.33;;;-0.70;99.90;1.40;102965.00;;;;5066970;28;20173;-70
2024/01/08 18:58:52;;;;;;;1.00;0.97;;;-0.60;99.90;1.70;102907.00;;;;5074288;28;20665;-70
2024/01/08 19:01:26;;;;;;;1.30;1.20;;;-0.70;99.90;1.30;102920.00;;;;5076138;28;20190;-70
2024/01/08 19:04:10;;;;;;;1.33;0.70;;;-0.60;99.90;1.10;102967.00;;;;5077427;28;20164;-70
2024/01/08 19:06:52;;;;;;;1.90;1.80;;;-0.70;99.90;1.20;102962.00;;;;5083153;28;20586;-70
2024/01/08 19:09:55;;;;;;;0.77;0.60;;;-0.80;99.90;1.00;102963.00;;;;5075612;28;20192;-70
2024/01/08 19:13:04;;;;;;;1.60;1.37;;;-0.70;99.90;1.20;102982.00;;;;5077980;28;20274;-70
2024/01/08 19:16:15;;;;;;;1.10;1.07;;;-0.80;99.90;1.20;102988.00;;;;5073949;28;20315;-70
2024/01/08 19:19:11;;;;;;;2.20;1.70;;;-0.80;99.90;1.00;102979.00;;;;5071218;28;20188;-70
2024/01/08 19:22:21;;;;;;;1.10;1.10;;;-0.80;99.90;1.20;103009.00;;;;5068711;28;20216;-70
2024/01/08 19:25:31;;;;;;;3.00;1.10;;;-0.80;99.90;0.70;102997.00;;;;5068556;28;20581;-70
2024/01/08 19:28:34;;;;;;;2.10;1.20;;;-0.70;99.90;1.50;102928.00;;;;5074112;28;20193;-70
2024/01/08 19:31:45;;;;;;;1.30;1.20;;;-0.90;99.90;1.80;102974.00;;;;5080515;28;20231;-70